sensor_id;sensor_type;location;lat;lon;timestamp;pressure;altitude;pressure_sealevel;temperature;humidity
13235;BME280;6683;48.506;9.050;2023-09-19T00:02:26;97780.19;;;19.42;63.79
13235;BME280;6683;48.506;9.050;2023-09-19T00:05:34;97770.22;;;19.37;63.94
13235;BME280;6683;48.506;9.050;2023-09-19T00:08:36;97776.63;;;19.36;63.99
13235;BME280;6683;48.506;9.050;2023-09-19T00:11:40;97781.97;;;19.36;64.14
13235;BME280;6683;48.506;9.050;2023-09-19T00:14:43;97785.47;;;19.37;63.93
13235;BME280;6683;48.506;9.050;2023-09-19T00:17:45;97783.63;;;19.37;64.00
13235;BME280;6683;48.506;9.050;2023-09-19T00:20:48;97787.09;;;19.38;64.10
13235;BME280;6683;48.506;9.050;2023-09-19T00:23:51;97782.81;;;19.37;64.13
13235;BME280;6683;48.506;9.050;2023-09-19T00:26:55;97787.34;;;19.36;64.29
13235;BME280;6683;48.506;9.050;2023-09-19T00:29:59;97790.00;;;19.36;64.26
13235;BME280;6683;48.506;9.050;2023-09-19T00:33:05;97791.66;;;19.37;64.35
13235;BME280;6683;48.506;9.050;2023-09-19T00:36:08;97791.66;;;19.37;64.35
13235;BME280;6683;48.506;9.050;2023-09-19T00:39:10;97779.88;;;19.38;64.48
13235;BME280;6683;48.506;9.050;2023-09-19T00:42:19;97785.47;;;19.37;64.48
13235;BME280;6683;48.506;9.050;2023-09-19T00:45:22;97778.25;;;19.37;64.61
13235;BME280;6683;48.506;9.050;2023-09-19T00:48:26;97793.25;;;19.38;64.50
13235;BME280;6683;48.506;9.050;2023-09-19T00:51:29;97790.56;;;19.38;64.64
13235;BME280;6683;48.506;9.050;2023-09-19T00:54:34;97784.66;;;19.36;64.64
13235;BME280;6683;48.506;9.050;2023-09-19T00:57:38;97790.00;;;19.36;64.64
13235;BME280;6683;48.506;9.050;2023-09-19T01:00:41;97797.00;;;19.37;64.72
13235;BME280;6683;48.506;9.050;2023-09-19T01:03:45;97785.22;;;19.38;64.77
13235;BME280;6683;48.506;9.050;2023-09-19T01:06:47;97788.97;;;19.37;64.64
13235;BME280;6683;48.506;9.050;2023-09-19T01:09:53;97783.88;;;19.36;64.50
13235;BME280;6683;48.506;9.050;2023-09-19T01:13:05;97787.00;;;19.33;64.73
13235;BME280;6683;48.506;9.050;2023-09-19T01:16:22;97779.25;;;19.31;64.60
13235;BME280;6683;48.506;9.050;2023-09-19T01:20:21;97782.97;;;19.30;64.64
13235;BME280;6683;48.506;9.050;2023-09-19T01:23:40;97787.19;;;19.26;64.79
13235;BME280;6683;48.506;9.050;2023-09-19T01:27:17;97784.78;;;19.25;64.69
13235;BME280;6683;48.506;9.050;2023-09-19T01:30:32;97785.03;;;19.23;64.69
13235;BME280;6683;48.506;9.050;2023-09-19T01:33:59;97789.59;;;19.23;64.81
13235;BME280;6683;48.506;9.050;2023-09-19T01:37:01;97795.97;;;19.22;64.86
13235;BME280;6683;48.506;9.050;2023-09-19T01:40:07;97802.41;;;19.21;65.04
13235;BME280;6683;48.506;9.050;2023-09-19T01:43:24;97806.69;;;19.22;65.04
13235;BME280;6683;48.506;9.050;2023-09-19T01:46:34;97805.09;;;19.21;65.00
13235;BME280;6683;48.506;9.050;2023-09-19T01:49:44;97814.97;;;19.20;65.24
13235;BME280;6683;48.506;9.050;2023-09-19T01:52:57;97816.81;;;19.20;64.99
13235;BME280;6683;48.506;9.050;2023-09-19T01:56:02;97816.03;;;19.19;65.28
13235;BME280;6683;48.506;9.050;2023-09-19T01:59:11;97824.84;;;19.20;65.27
13235;BME280;6683;48.506;9.050;2023-09-19T02:02:17;97818.72;;;19.19;65.26
13235;BME280;6683;48.506;9.050;2023-09-19T02:05:25;97829.41;;;19.19;65.25
13235;BME280;6683;48.506;9.050;2023-09-19T02:08:28;97832.09;;;19.19;65.32
13235;BME280;6683;48.506;9.050;2023-09-19T02:11:32;97827.78;;;19.18;65.35
13235;BME280;6683;48.506;9.050;2023-09-19T02:14:34;97833.41;;;19.17;65.51
13235;BME280;6683;48.506;9.050;2023-09-19T02:17:38;97844.34;;;19.15;65.54
13235;BME280;6683;48.506;9.050;2023-09-19T02:20:40;97845.16;;;19.15;65.46
13235;BME280;6683;48.506;9.050;2023-09-19T02:23:42;97843.53;;;19.14;65.58
13235;BME280;6683;48.506;9.050;2023-09-19T02:26:44;97837.38;;;19.14;65.53
13235;BME280;6683;48.506;9.050;2023-09-19T02:29:46;97839.22;;;19.13;65.54
13235;BME280;6683;48.506;9.050;2023-09-19T02:32:52;97838.94;;;19.10;65.58
13235;BME280;6683;48.506;9.050;2023-09-19T02:35:55;97839.97;;;19.09;65.50
13235;BME280;6683;48.506;9.050;2023-09-19T02:38:59;97847.44;;;19.07;65.37
13235;BME280;6683;48.506;9.050;2023-09-19T02:42:01;97838.06;;;19.04;65.37
13235;BME280;6683;48.506;9.050;2023-09-19T02:45:06;97840.41;;;19.01;65.28
13235;BME280;6683;48.506;9.050;2023-09-19T02:48:10;97843.59;;;18.98;65.12
13235;BME280;6683;48.506;9.050;2023-09-19T02:51:12;97840.59;;;18.94;65.07
13235;BME280;6683;48.506;9.050;2023-09-19T02:54:15;97841.94;;;18.92;65.14
13235;BME280;6683;48.506;9.050;2023-09-19T02:57:18;97851.47;;;18.88;65.12
13235;BME280;6683;48.506;9.050;2023-09-19T03:00:22;97846.06;;;18.83;65.04
13235;BME280;6683;48.506;9.050;2023-09-19T03:03:26;97853.53;;;18.81;65.10
13235;BME280;6683;48.506;9.050;2023-09-19T03:06:29;97851.34;;;18.78;65.17
13235;BME280;6683;48.506;9.050;2023-09-19T03:09:32;97852.41;;;18.77;65.18
13235;BME280;6683;48.506;9.050;2023-09-19T03:12:34;97842.75;;;18.76;65.40
13235;BME280;6683;48.506;9.050;2023-09-19T03:15:40;97856.38;;;18.74;65.44
13235;BME280;6683;48.506;9.050;2023-09-19T03:18:45;97858.00;;;18.75;65.49
13235;BME280;6683;48.506;9.050;2023-09-19T03:21:48;97857.75;;;18.77;65.51
13235;BME280;6683;48.506;9.050;2023-09-19T03:24:51;97869.84;;;18.79;65.77
13235;BME280;6683;48.506;9.050;2023-09-19T03:27:55;97867.72;;;18.81;65.83
13235;BME280;6683;48.506;9.050;2023-09-19T03:31:00;97867.47;;;18.83;65.84
13235;BME280;6683;48.506;9.050;2023-09-19T03:34:04;97874.69;;;18.82;65.84
13235;BME280;6683;48.506;9.050;2023-09-19T03:37:06;97874.41;;;18.84;65.71
13235;BME280;6683;48.506;9.050;2023-09-19T03:40:09;97876.06;;;18.85;65.92
13235;BME280;6683;48.506;9.050;2023-09-19T03:43:12;97874.97;;;18.86;65.91
13235;BME280;6683;48.506;9.050;2023-09-19T03:46:14;97883.81;;;18.86;66.05
13235;BME280;6683;48.506;9.050;2023-09-19T03:49:18;97896.38;;;18.86;66.20
13235;BME280;6683;48.506;9.050;2023-09-19T03:52:20;97895.91;;;18.89;66.38
13235;BME280;6683;48.506;9.050;2023-09-19T03:55:22;97892.75;;;18.92;66.32
13235;BME280;6683;48.506;9.050;2023-09-19T03:58:24;97888.75;;;18.94;66.50
13235;BME280;6683;48.506;9.050;2023-09-19T04:01:26;97878.03;;;18.94;66.48
13235;BME280;6683;48.506;9.050;2023-09-19T04:04:32;97879.97;;;18.99;66.51
13235;BME280;6683;48.506;9.050;2023-09-19T04:07:35;97878.13;;;18.99;66.72
13235;BME280;6683;48.506;9.050;2023-09-19T04:10:37;97874.16;;;19.02;66.58
13235;BME280;6683;48.506;9.050;2023-09-19T04:13:39;97863.44;;;19.02;66.65
13235;BME280;6683;48.506;9.050;2023-09-19T04:16:41;97864.50;;;19.01;66.64
13235;BME280;6683;48.506;9.050;2023-09-19T04:19:44;97868.25;;;19.00;66.62
13235;BME280;6683;48.506;9.050;2023-09-19T04:22:46;97874.63;;;18.99;66.62
13235;BME280;6683;48.506;9.050;2023-09-19T04:25:48;97872.22;;;18.97;66.63
13235;BME280;6683;48.506;9.050;2023-09-19T04:28:51;97882.34;;;18.95;66.56
13235;BME280;6683;48.506;9.050;2023-09-19T04:31:53;97876.91;;;18.90;66.59
13235;BME280;6683;48.506;9.050;2023-09-19T04:34:56;97881.97;;;18.87;66.54
13235;BME280;6683;48.506;9.050;2023-09-19T04:38:01;97879.78;;;18.84;66.64
13235;BME280;6683;48.506;9.050;2023-09-19T04:41:04;97887.47;;;18.80;66.59
13235;BME280;6683;48.506;9.050;2023-09-19T04:44:06;97891.44;;;18.78;66.55
13235;BME280;6683;48.506;9.050;2023-09-19T04:47:08;97891.41;;;18.73;66.65
13235;BME280;6683;48.506;9.050;2023-09-19T04:50:14;97885.97;;;18.68;66.77
13235;BME280;6683;48.506;9.050;2023-09-19T04:53:17;97885.41;;;18.66;66.77
13235;BME280;6683;48.506;9.050;2023-09-19T04:56:21;97891.00;;;18.64;66.80
13235;BME280;6683;48.506;9.050;2023-09-19T04:59:24;97904.63;;;18.63;66.65
13235;BME280;6683;48.506;9.050;2023-09-19T05:02:29;97903.47;;;18.59;66.74
13235;BME280;6683;48.506;9.050;2023-09-19T05:05:33;97901.28;;;18.56;66.60
13235;BME280;6683;48.506;9.050;2023-09-19T05:08:35;97899.66;;;18.55;66.71
13235;BME280;6683;48.506;9.050;2023-09-19T05:11:37;97896.41;;;18.53;66.61
13235;BME280;6683;48.506;9.050;2023-09-19T05:14:40;97899.34;;;18.51;66.78
13235;BME280;6683;48.506;9.050;2023-09-19T05:17:42;97894.81;;;18.52;66.92
13235;BME280;6683;48.506;9.050;2023-09-19T05:20:45;97909.78;;;18.53;66.95
13235;BME280;6683;48.506;9.050;2023-09-19T05:23:47;97909.56;;;18.54;67.08
13235;BME280;6683;48.506;9.050;2023-09-19T05:26:50;97912.81;;;18.56;67.17
13235;BME280;6683;48.506;9.050;2023-09-19T05:29:52;97916.03;;;18.58;67.08
13235;BME280;6683;48.506;9.050;2023-09-19T05:32:56;97920.88;;;18.61;67.26
13235;BME280;6683;48.506;9.050;2023-09-19T05:36:00;97922.81;;;18.66;67.26
13235;BME280;6683;48.506;9.050;2023-09-19T05:39:02;97925.59;;;18.71;67.23
13235;BME280;6683;48.506;9.050;2023-09-19T05:42:05;97926.72;;;18.75;67.43
13235;BME280;6683;48.506;9.050;2023-09-19T05:45:09;97936.91;;;18.78;67.47
13235;BME280;6683;48.506;9.050;2023-09-19T05:48:14;97947.44;;;18.84;67.68
13235;BME280;6683;48.506;9.050;2023-09-19T05:51:18;97938.44;;;18.90;67.85
13235;BME280;6683;48.506;9.050;2023-09-19T05:54:23;97943.63;;;18.97;67.79
13235;BME280;6683;48.506;9.050;2023-09-19T05:57:25;97951.72;;;19.02;67.82
13235;BME280;6683;48.506;9.050;2023-09-19T06:00:31;97954.47;;;19.07;67.73
13235;BME280;6683;48.506;9.050;2023-09-19T06:03:33;97966.06;;;19.12;67.91
13235;BME280;6683;48.506;9.050;2023-09-19T06:06:37;97963.44;;;19.17;67.86
13235;BME280;6683;48.506;9.050;2023-09-19T06:09:40;97975.25;;;19.22;67.74
13235;BME280;6683;48.506;9.050;2023-09-19T06:12:42;97974.22;;;19.23;67.86
13235;BME280;6683;48.506;9.050;2023-09-19T06:15:45;97978.28;;;19.25;67.90
13235;BME280;6683;48.506;9.050;2023-09-19T06:18:48;97983.13;;;19.28;67.97
13235;BME280;6683;48.506;9.050;2023-09-19T06:21:54;97986.91;;;19.32;67.94
13235;BME280;6683;48.506;9.050;2023-09-19T06:24:57;97985.66;;;19.35;67.89
13235;BME280;6683;48.506;9.050;2023-09-19T06:27:59;97997.47;;;19.39;67.77
13235;BME280;6683;48.506;9.050;2023-09-19T06:31:06;97993.50;;;19.41;68.05
13235;BME280;6683;48.506;9.050;2023-09-19T06:34:13;97995.44;;;19.46;68.04
13235;BME280;6683;48.506;9.050;2023-09-19T06:37:17;97997.38;;;19.50;67.91
13235;BME280;6683;48.506;9.050;2023-09-19T06:40:19;98003.34;;;19.57;67.95
13235;BME280;6683;48.506;9.050;2023-09-19T06:43:21;98008.78;;;19.62;67.95
13235;BME280;6683;48.506;9.050;2023-09-19T06:46:24;98004.28;;;19.68;67.99
13235;BME280;6683;48.506;9.050;2023-09-19T06:49:26;98005.75;;;19.75;68.23
13235;BME280;6683;48.506;9.050;2023-09-19T06:52:31;98009.28;;;19.81;68.04
13235;BME280;6683;48.506;9.050;2023-09-19T06:55:34;98017.94;;;19.88;68.00
13235;BME280;6683;48.506;9.050;2023-09-19T06:58:37;98030.09;;;19.96;68.04
13235;BME280;6683;48.506;9.050;2023-09-19T07:01:39;98023.72;;;20.02;67.98
13235;BME280;6683;48.506;9.050;2023-09-19T07:04:41;98025.97;;;20.10;67.96
13235;BME280;6683;48.506;9.050;2023-09-19T07:07:45;98029.81;;;20.19;67.84
13235;BME280;6683;48.506;9.050;2023-09-19T07:10:47;98019.22;;;20.29;67.83
13235;BME280;6683;48.506;9.050;2023-09-19T07:13:50;98025.78;;;20.38;67.95
13235;BME280;6683;48.506;9.050;2023-09-19T07:16:52;98022.38;;;20.47;67.85
13235;BME280;6683;48.506;9.050;2023-09-19T07:19:54;98029.44;;;20.58;67.69
13235;BME280;6683;48.506;9.050;2023-09-19T07:22:57;98042.94;;;20.68;67.52
13235;BME280;6683;48.506;9.050;2023-09-19T07:26:00;98048.13;;;20.80;67.35
13235;BME280;6683;48.506;9.050;2023-09-19T07:29:05;98048.25;;;20.90;67.36
13235;BME280;6683;48.506;9.050;2023-09-19T07:32:09;98050.47;;;20.98;67.01
13235;BME280;6683;48.506;9.050;2023-09-19T07:35:12;98047.88;;;21.08;66.98
13235;BME280;6683;48.506;9.050;2023-09-19T07:38:17;98049.28;;;21.16;66.91
13235;BME280;6683;48.506;9.050;2023-09-19T07:41:19;98046.66;;;21.26;66.75
13235;BME280;6683;48.506;9.050;2023-09-19T07:44:21;98056.13;;;21.33;66.50
13235;BME280;6683;48.506;9.050;2023-09-19T07:47:25;98062.31;;;21.39;66.27
13235;BME280;6683;48.506;9.050;2023-09-19T07:50:28;98061.00;;;21.41;65.93
13235;BME280;6683;48.506;9.050;2023-09-19T07:53:31;98071.22;;;21.44;65.49
13235;BME280;6683;48.506;9.050;2023-09-19T07:56:35;98068.53;;;21.44;65.56
13235;BME280;6683;48.506;9.050;2023-09-19T07:59:38;98072.28;;;21.43;65.39
13235;BME280;6683;48.506;9.050;2023-09-19T08:02:42;98074.16;;;21.43;64.94
13235;BME280;6683;48.506;9.050;2023-09-19T08:05:45;98070.13;;;21.40;64.68
13235;BME280;6683;48.506;9.050;2023-09-19T08:08:52;98085.44;;;21.40;64.86
13235;BME280;6683;48.506;9.050;2023-09-19T08:11:55;98084.63;;;21.44;64.59
13235;BME280;6683;48.506;9.050;2023-09-19T08:14:58;98091.13;;;21.48;64.46
13235;BME280;6683;48.506;9.050;2023-09-19T08:18:00;98096.25;;;21.50;64.11
13235;BME280;6683;48.506;9.050;2023-09-19T08:21:02;98092.47;;;21.51;64.06
13235;BME280;6683;48.506;9.050;2023-09-19T08:24:06;98091.44;;;21.57;63.75
13235;BME280;6683;48.506;9.050;2023-09-19T08:27:09;98108.16;;;21.64;63.78
13235;BME280;6683;48.506;9.050;2023-09-19T08:30:14;98104.69;;;21.74;63.74
13235;BME280;6683;48.506;9.050;2023-09-19T08:33:16;98104.00;;;21.88;63.61
13235;BME280;6683;48.506;9.050;2023-09-19T08:36:18;98108.09;;;22.01;63.16
13235;BME280;6683;48.506;9.050;2023-09-19T08:39:22;98112.47;;;22.12;62.32
13235;BME280;6683;48.506;9.050;2023-09-19T08:42:24;98119.25;;;22.19;61.90
13235;BME280;6683;48.506;9.050;2023-09-19T08:45:27;98118.97;;;22.26;61.83
13235;BME280;6683;48.506;9.050;2023-09-19T08:48:30;98114.72;;;22.35;61.92
13235;BME280;6683;48.506;9.050;2023-09-19T08:51:42;98124.19;;;22.48;61.76
13235;BME280;6683;48.506;9.050;2023-09-19T08:54:49;98129.59;;;22.58;60.75
13235;BME280;6683;48.506;9.050;2023-09-19T08:58:00;98122.94;;;22.65;60.65
13235;BME280;6683;48.506;9.050;2023-09-19T09:01:03;98118.09;;;22.77;59.93
13235;BME280;6683;48.506;9.050;2023-09-19T09:04:09;98121.63;;;22.93;59.90
13235;BME280;6683;48.506;9.050;2023-09-19T09:07:14;98126.50;;;23.06;59.30
13235;BME280;6683;48.506;9.050;2023-09-19T09:10:18;98133.25;;;23.24;59.14
13235;BME280;6683;48.506;9.050;2023-09-19T09:13:23;98125.72;;;23.36;58.82
13235;BME280;6683;48.506;9.050;2023-09-19T09:16:27;98128.41;;;23.56;58.21
13235;BME280;6683;48.506;9.050;2023-09-19T09:19:31;98125.94;;;23.74;57.61
13235;BME280;6683;48.506;9.050;2023-09-19T09:22:33;98128.09;;;23.88;57.30
13235;BME280;6683;48.506;9.050;2023-09-19T09:25:52;98125.09;;;23.89;56.68
13235;BME280;6683;48.506;9.050;2023-09-19T09:28:58;98130.78;;;23.88;56.08
13235;BME280;6683;48.506;9.050;2023-09-19T09:32:17;98128.66;;;23.79;55.66
13235;BME280;6683;48.506;9.050;2023-09-19T09:35:20;98123.78;;;23.81;55.34
13235;BME280;6683;48.506;9.050;2023-09-19T09:38:24;98124.03;;;23.90;55.12
13235;BME280;6683;48.506;9.050;2023-09-19T09:41:36;98120.78;;;23.98;55.01
13235;BME280;6683;48.506;9.050;2023-09-19T09:44:40;98120.50;;;24.10;54.54
13235;BME280;6683;48.506;9.050;2023-09-19T09:47:46;98130.94;;;24.26;54.16
13235;BME280;6683;48.506;9.050;2023-09-19T09:50:56;98130.38;;;24.39;53.76
13235;BME280;6683;48.506;9.050;2023-09-19T09:54:11;98127.06;;;24.52;53.58
13235;BME280;6683;48.506;9.050;2023-09-19T09:57:16;98122.16;;;24.65;52.97
13235;BME280;6683;48.506;9.050;2023-09-19T10:00:20;98117.28;;;24.67;52.62
13235;BME280;6683;48.506;9.050;2023-09-19T10:03:33;98107.81;;;24.69;53.01
13235;BME280;6683;48.506;9.050;2023-09-19T10:06:41;98104.53;;;24.72;52.50
13235;BME280;6683;48.506;9.050;2023-09-19T10:09:48;98105.38;;;24.78;52.34
13235;BME280;6683;48.506;9.050;2023-09-19T10:12:55;98107.72;;;24.89;52.17
13235;BME280;6683;48.506;9.050;2023-09-19T10:16:06;98104.69;;;25.01;52.05
13235;BME280;6683;48.506;9.050;2023-09-19T10:19:17;98109.41;;;25.14;51.33
13235;BME280;6683;48.506;9.050;2023-09-19T10:22:24;98112.06;;;25.24;51.09
13235;BME280;6683;48.506;9.050;2023-09-19T10:25:28;98101.09;;;25.39;50.93
13235;BME280;6683;48.506;9.050;2023-09-19T10:28:32;98115.03;;;25.56;50.44
13235;BME280;6683;48.506;9.050;2023-09-19T10:31:38;98106.50;;;25.73;50.20
13235;BME280;6683;48.506;9.050;2023-09-19T10:34:42;98105.09;;;25.80;50.19
13235;BME280;6683;48.506;9.050;2023-09-19T10:37:45;98092.88;;;25.83;49.84
13235;BME280;6683;48.506;9.050;2023-09-19T10:40:52;98095.13;;;25.99;49.31
13235;BME280;6683;48.506;9.050;2023-09-19T10:43:57;98094.41;;;26.18;49.19
13235;BME280;6683;48.506;9.050;2023-09-19T10:47:00;98094.59;;;26.45;49.13
13235;BME280;6683;48.506;9.050;2023-09-19T10:50:08;98087.19;;;26.74;48.45
13235;BME280;6683;48.506;9.050;2023-09-19T10:53:13;98087.81;;;27.03;48.09
13235;BME280;6683;48.506;9.050;2023-09-19T10:56:23;98089.31;;;27.28;47.68
13235;BME280;6683;48.506;9.050;2023-09-19T10:59:30;98085.25;;;27.44;47.01
13235;BME280;6683;48.506;9.050;2023-09-19T11:02:35;98080.28;;;27.51;46.83
13235;BME280;6683;48.506;9.050;2023-09-19T11:05:38;98080.97;;;27.56;45.71
13235;BME280;6683;48.506;9.050;2023-09-19T11:09:08;98077.38;;;27.61;45.71
13235;BME280;6683;48.506;9.050;2023-09-19T11:12:48;98079.31;;;27.74;45.47
13235;BME280;6683;48.506;9.050;2023-09-19T11:16:19;98074.19;;;27.86;45.17
13235;BME280;6683;48.506;9.050;2023-09-19T11:19:24;98069.19;;;27.93;44.29
13235;BME280;6683;48.506;9.050;2023-09-19T11:23:23;98076.19;;;27.94;43.55
13235;BME280;6683;48.506;9.050;2023-09-19T11:26:41;98063.34;;;28.00;43.30
13235;BME280;6683;48.506;9.050;2023-09-19T11:29:48;98062.38;;;28.09;43.21
13235;BME280;6683;48.506;9.050;2023-09-19T11:33:19;98063.25;;;28.05;42.88
13235;BME280;6683;48.506;9.050;2023-09-19T11:36:35;98060.47;;;28.10;42.55
13235;BME280;6683;48.506;9.050;2023-09-19T11:39:39;98060.47;;;28.10;42.10
13235;BME280;6683;48.506;9.050;2023-09-19T11:42:43;98064.88;;;28.06;42.14
13235;BME280;6683;48.506;9.050;2023-09-19T11:46:05;98054.38;;;27.86;42.27
13235;BME280;6683;48.506;9.050;2023-09-19T11:49:10;98062.13;;;27.79;42.11
13235;BME280;6683;48.506;9.050;2023-09-19T11:52:22;98056.88;;;27.68;42.63
13235;BME280;6683;48.506;9.050;2023-09-19T11:55:25;98052.69;;;27.76;42.16
13235;BME280;6683;48.506;9.050;2023-09-19T11:58:31;98049.06;;;27.94;42.01
13235;BME280;6683;48.506;9.050;2023-09-19T12:01:34;98046.88;;;28.10;41.55
13235;BME280;6683;48.506;9.050;2023-09-19T12:04:39;98040.94;;;28.21;40.88
13235;BME280;6683;48.506;9.050;2023-09-19T12:07:43;98037.91;;;28.36;40.26
13235;BME280;6683;48.506;9.050;2023-09-19T12:10:49;98029.19;;;28.48;39.42
13235;BME280;6683;48.506;9.050;2023-09-19T12:13:51;98024.97;;;28.56;39.26
13235;BME280;6683;48.506;9.050;2023-09-19T12:16:55;98022.16;;;28.61;39.31
13235;BME280;6683;48.506;9.050;2023-09-19T12:19:58;98022.25;;;28.56;38.97
13235;BME280;6683;48.506;9.050;2023-09-19T12:23:01;98019.16;;;28.48;38.83
13235;BME280;6683;48.506;9.050;2023-09-19T12:26:03;98028.59;;;28.51;39.16
13235;BME280;6683;48.506;9.050;2023-09-19T12:29:14;98009.88;;;28.63;39.13
13235;BME280;6683;48.506;9.050;2023-09-19T12:32:18;98009.94;;;28.72;38.32
13235;BME280;6683;48.506;9.050;2023-09-19T12:35:33;98006.56;;;28.66;38.43
13235;BME280;6683;48.506;9.050;2023-09-19T12:38:36;98008.88;;;28.45;38.88
13235;BME280;6683;48.506;9.050;2023-09-19T12:41:38;98006.88;;;28.15;38.42
13235;BME280;6683;48.506;9.050;2023-09-19T12:44:42;98001.94;;;27.90;38.82
13235;BME280;6683;48.506;9.050;2023-09-19T12:48:20;98001.53;;;27.69;39.16
13235;BME280;6683;48.506;9.050;2023-09-19T12:51:35;98012.47;;;27.51;39.47
13235;BME280;6683;48.506;9.050;2023-09-19T12:54:38;98007.66;;;27.34;39.71
13235;BME280;6683;48.506;9.050;2023-09-19T12:57:41;98010.28;;;27.21;40.09
13235;BME280;6683;48.506;9.050;2023-09-19T13:00:45;98009.06;;;27.13;40.19
13235;BME280;6683;48.506;9.050;2023-09-19T13:04:13;98012.16;;;27.07;40.70
13235;BME280;6683;48.506;9.050;2023-09-19T13:07:41;98004.09;;;27.02;41.02
13235;BME280;6683;48.506;9.050;2023-09-19T13:11:08;98001.00;;;26.95;40.88
13235;BME280;6683;48.506;9.050;2023-09-19T13:14:19;98000.34;;;26.84;40.98
13235;BME280;6683;48.506;9.050;2023-09-19T13:17:21;97994.00;;;26.75;40.79
13235;BME280;6683;48.506;9.050;2023-09-19T13:20:25;97994.06;;;26.70;40.89
13235;BME280;6683;48.506;9.050;2023-09-19T13:23:30;97991.22;;;26.61;41.00
13235;BME280;6683;48.506;9.050;2023-09-19T13:26:32;97995.88;;;26.56;41.16
13235;BME280;6683;48.506;9.050;2023-09-19T13:29:35;97989.44;;;26.52;40.93
13235;BME280;6683;48.506;9.050;2023-09-19T13:32:37;97985.44;;;26.49;40.85
13235;BME280;6683;48.506;9.050;2023-09-19T13:35:41;97983.81;;;26.48;41.16
13235;BME280;6683;48.506;9.050;2023-09-19T13:38:44;97987.09;;;26.45;41.27
13235;BME280;6683;48.506;9.050;2023-09-19T13:41:49;97984.41;;;26.45;41.31
13235;BME280;6683;48.506;9.050;2023-09-19T13:44:51;97978.47;;;26.43;41.21
13235;BME280;6683;48.506;9.050;2023-09-19T13:47:54;97983.38;;;26.41;41.25
13235;BME280;6683;48.506;9.050;2023-09-19T13:50:56;97972.84;;;26.40;41.35
13235;BME280;6683;48.506;9.050;2023-09-19T13:53:59;97968.81;;;26.37;41.53
13235;BME280;6683;48.506;9.050;2023-09-19T13:57:02;97974.84;;;26.34;41.67
13235;BME280;6683;48.506;9.050;2023-09-19T14:00:06;97968.09;;;26.32;41.38
13235;BME280;6683;48.506;9.050;2023-09-19T14:03:11;97971.91;;;26.31;41.51
13235;BME280;6683;48.506;9.050;2023-09-19T14:06:13;97969.78;;;26.28;40.90
13235;BME280;6683;48.506;9.050;2023-09-19T14:09:16;97968.47;;;26.25;40.59
13235;BME280;6683;48.506;9.050;2023-09-19T14:12:20;97962.25;;;26.25;40.72
13235;BME280;6683;48.506;9.050;2023-09-19T14:15:22;97961.16;;;26.26;40.56
13235;BME280;6683;48.506;9.050;2023-09-19T14:18:30;97964.06;;;26.29;40.46
13235;BME280;6683;48.506;9.050;2023-09-19T14:21:32;97961.06;;;26.31;40.35
13235;BME280;6683;48.506;9.050;2023-09-19T14:24:35;97954.28;;;26.33;39.93
13235;BME280;6683;48.506;9.050;2023-09-19T14:27:37;97948.78;;;26.38;39.69
13235;BME280;6683;48.506;9.050;2023-09-19T14:30:39;97960.44;;;26.39;39.81
13235;BME280;6683;48.506;9.050;2023-09-19T14:33:41;97947.09;;;26.42;39.88
13235;BME280;6683;48.506;9.050;2023-09-19T14:36:45;97953.03;;;26.44;40.14
13235;BME280;6683;48.506;9.050;2023-09-19T14:39:48;97938.47;;;26.40;39.72
13235;BME280;6683;48.506;9.050;2023-09-19T14:42:50;97934.25;;;26.34;39.69
13235;BME280;6683;48.506;9.050;2023-09-19T14:45:52;97933.22;;;26.30;39.50
13235;BME280;6683;48.506;9.050;2023-09-19T14:48:56;97939.50;;;26.26;39.06
13235;BME280;6683;48.506;9.050;2023-09-19T14:52:00;97938.50;;;26.22;39.20
13235;BME280;6683;48.506;9.050;2023-09-19T14:55:07;97921.75;;;26.20;39.27
13235;BME280;6683;48.506;9.050;2023-09-19T14:58:16;97920.13;;;26.19;39.22
13235;BME280;6683;48.506;9.050;2023-09-19T15:01:18;97919.31;;;26.18;39.06
13235;BME280;6683;48.506;9.050;2023-09-19T15:04:20;97916.91;;;26.17;39.10
13235;BME280;6683;48.506;9.050;2023-09-19T15:07:22;97917.72;;;26.17;38.99
13235;BME280;6683;48.506;9.050;2023-09-19T15:10:25;97925.84;;;26.17;38.77
13235;BME280;6683;48.506;9.050;2023-09-19T15:13:27;97918.81;;;26.16;39.02
13235;BME280;6683;48.506;9.050;2023-09-19T15:16:30;97913.69;;;26.14;39.10
13235;BME280;6683;48.506;9.050;2023-09-19T15:19:33;97913.19;;;26.12;39.07
13235;BME280;6683;48.506;9.050;2023-09-19T15:22:36;97920.28;;;26.08;39.00
13235;BME280;6683;48.506;9.050;2023-09-19T15:25:48;97911.63;;;26.06;38.93
13235;BME280;6683;48.506;9.050;2023-09-19T15:28:50;97924.09;;;26.07;38.66
13235;BME280;6683;48.506;9.050;2023-09-19T15:31:55;97927.84;;;26.06;38.49
13235;BME280;6683;48.506;9.050;2023-09-19T15:35:04;97918.16;;;26.05;38.72
13235;BME280;6683;48.506;9.050;2023-09-19T15:38:06;97918.41;;;26.04;38.53
13235;BME280;6683;48.506;9.050;2023-09-19T15:41:13;97922.22;;;26.03;38.73
13235;BME280;6683;48.506;9.050;2023-09-19T15:44:18;97913.31;;;26.02;38.62
13235;BME280;6683;48.506;9.050;2023-09-19T15:47:20;97917.91;;;26.02;38.68
13235;BME280;6683;48.506;9.050;2023-09-19T15:50:22;97911.16;;;25.99;38.39
13235;BME280;6683;48.506;9.050;2023-09-19T15:53:26;97914.19;;;25.98;38.27
13235;BME280;6683;48.506;9.050;2023-09-19T15:56:29;97915.28;;;25.97;38.03
13235;BME280;6683;48.506;9.050;2023-09-19T15:59:31;97909.88;;;25.97;38.34
13235;BME280;6683;48.506;9.050;2023-09-19T16:02:33;97916.38;;;25.96;38.31
13235;BME280;6683;48.506;9.050;2023-09-19T16:05:36;97911.78;;;25.96;38.27
13235;BME280;6683;48.506;9.050;2023-09-19T16:08:40;97896.94;;;25.94;38.02
13235;BME280;6683;48.506;9.050;2023-09-19T16:11:44;97902.63;;;25.92;37.81
13235;BME280;6683;48.506;9.050;2023-09-19T16:14:46;97909.13;;;25.91;37.88
13235;BME280;6683;48.506;9.050;2023-09-19T16:17:48;97901.81;;;25.92;37.88
13235;BME280;6683;48.506;9.050;2023-09-19T16:20:50;97895.91;;;25.90;37.99
13235;BME280;6683;48.506;9.050;2023-09-19T16:23:53;97898.59;;;25.90;37.80
13235;BME280;6683;48.506;9.050;2023-09-19T16:26:57;97894.56;;;25.87;37.76
13235;BME280;6683;48.506;9.050;2023-09-19T16:30:00;97891.97;;;25.82;37.58
13235;BME280;6683;48.506;9.050;2023-09-19T16:33:03;97885.03;;;25.76;37.98
13235;BME280;6683;48.506;9.050;2023-09-19T16:36:07;97879.16;;;25.69;37.83